Yue Dian 83 — VRHN8 — position and weather

sailwx.info

Track history (hours):
 
Tides and Currents Weather Stations Pressure Air Temp Water Temp Dewpoint Dewpoint Depression Visibility Wind Speed Wind Dir Waves Ship Positions

Yue Dian 83

Last reported at 2018-Apr-21 20:16 UTC. Time now 2018-Apr-24 02:54 UTC.
Position S 00°14' W 051°19'.

Length 229 m; draft 7.6 m.

Type: Cargo ship. MMSI: 477962600.

Date/timePositionNaut miles runAvg speedWind from/ knotsBaromVisibWave heightAir tempDewpointWater temp
2018-Apr-21 20:16S 00°14' W 051°19'310.5
2018-Apr-21 20:01S 00°12' W 051°17'5 9.5
2018-Apr-21 19:30S 00°08' W 051°14'4 8.8
2018-Apr-21 19:00S 00°07' W 051°10'4 8.2
2018-Apr-21 18:30S 00°04' W 051°07'0 0.8
2018-Apr-21 17:56S 00°04' W 051°06'0 0.0
2018-Apr-21 17:14S 00°04' W 051°06'0 0.1
2018-Apr-21 16:59S 00°04' W 051°06'0 0.0
2018-Apr-21 16:23S 00°04' W 051°06'0 0.0
2018-Apr-21 15:59S 00°04' W 051°06'0 0.0
2018-Apr-21 15:29S 00°04' W 051°06'0 0.0
2018-Apr-21 14:56S 00°04' W 051°06'0 0.0
2018-Apr-21 14:23S 00°04' W 051°06'0 0.0
2018-Apr-21 13:53S 00°04' W 051°06'0 0.0
2018-Apr-21 13:29S 00°04' W 051°06'0 0.6
2018-Apr-21 12:53S 00°04' W 051°06'1 3.9
2018-Apr-21 12:30S 00°03' W 051°05'4 7.3
2018-Apr-21 12:00S 00°00' W 051°02'4 8.1
2018-Apr-21 11:30N 00°03' W 051°00'4 8.6
2018-Apr-21 11:00N 00°07' W 050°58'4 8.2
2018-Apr-21 10:30N 00°09' W 050°55'5 9.3
2018-Apr-21 10:00N 00°10' W 050°50'  
Track history (hours):
 
Tides and Currents Weather Stations Pressure Air Temp Water Temp Dewpoint Dewpoint Depression Visibility Wind Speed Wind Dir Waves Ship Positions

Yue Dian 83

Last reported at 2018-Apr-21 20:16 UTC. Time now 2018-Apr-24 02:54 UTC.
Position S 00°14' W 051°19'.

Length 229 m; draft 7.6 m.

Type: Cargo ship. MMSI: 477962600.

Date/timePositionNaut miles runAvg speedWind from/ knotsBaromVisibWave heightAir tempDewpointWater temp
2018-Apr-21 20:16S 00°14' W 051°19'310.5
2018-Apr-21 20:01S 00°12' W 051°17'5 9.5
2018-Apr-21 19:30S 00°08' W 051°14'4 8.8
2018-Apr-21 19:00S 00°07' W 051°10'4 8.2
2018-Apr-21 18:30S 00°04' W 051°07'0 0.8
2018-Apr-21 17:56S 00°04' W 051°06'0 0.0
2018-Apr-21 17:14S 00°04' W 051°06'0 0.1
2018-Apr-21 16:59S 00°04' W 051°06'0 0.0
2018-Apr-21 16:23S 00°04' W 051°06'0 0.0
2018-Apr-21 15:59S 00°04' W 051°06'0 0.0
2018-Apr-21 15:29S 00°04' W 051°06'0 0.0
2018-Apr-21 14:56S 00°04' W 051°06'0 0.0
2018-Apr-21 14:23S 00°04' W 051°06'0 0.0
2018-Apr-21 13:53S 00°04' W 051°06'0 0.0
2018-Apr-21 13:29S 00°04' W 051°06'0 0.6
2018-Apr-21 12:53S 00°04' W 051°06'1 3.9
2018-Apr-21 12:30S 00°03' W 051°05'4 7.3
2018-Apr-21 12:00S 00°00' W 051°02'4 8.1
2018-Apr-21 11:30N 00°03' W 051°00'4 8.6
2018-Apr-21 11:00N 00°07' W 050°58'4 8.2
2018-Apr-21 10:30N 00°09' W 050°55'5 9.3
2018-Apr-21 10:00N 00°10' W 050°50'  

Dump ship's entire track history